Time;durP1;ratioP1;P1;durP2;ratioP2;P2;SDS_P1;SDS_P2;PMS_P1;PMS_P2;Temp;Humidity;BMP_temperature;BMP_pressure;BME280_temperature;BME280_humidity;BME280_pressure;Samples;Min_cycle;Max_cycle;Signal;HPM_P1;HPM_P2
2024/02/29 00:01:09;;;;;;;3.92;2.17;;;;;;;18.53;41.94;101541.00;5029510;28;20037;-70
2024/02/29 00:03:34;;;;;;;4.85;2.42;;;;;;;18.42;42.06;101526.81;5024979;28;21066;-70
2024/02/29 00:06:00;;;;;;;4.55;2.00;;;;;;;18.49;41.90;101538.59;5027774;28;20029;-70
2024/02/29 00:08:27;;;;;;;3.53;1.95;;;;;;;18.48;41.99;101530.78;5025414;28;20022;-71
2024/02/29 00:10:52;;;;;;;5.32;2.10;;;;;;;18.32;41.74;101504.66;5020779;28;20041;-70
2024/02/29 00:13:17;;;;;;;4.88;2.45;;;;;;;18.28;42.01;101492.66;5023582;28;20041;-70
2024/02/29 00:15:43;;;;;;;5.65;2.35;;;;;;;18.45;41.92;101520.44;5020319;28;20064;-71
2024/02/29 00:18:08;;;;;;;4.05;2.03;;;;;;;18.36;41.66;101515.81;5020834;28;20483;-70
2024/02/29 00:20:35;;;;;;;3.97;1.80;;;;;;;18.41;41.70;101522.47;5020295;28;20039;-71
2024/02/29 00:23:00;;;;;;;4.57;2.22;;;;;;;18.33;41.59;101506.34;5028413;28;20755;-70
2024/02/29 00:25:26;;;;;;;4.63;2.20;;;;;;;18.40;41.76;101518.13;5025842;28;20029;-71
2024/02/29 00:27:51;;;;;;;4.55;2.00;;;;;;;18.40;41.58;101517.31;5020341;28;20526;-71
2024/02/29 00:30:17;;;;;;;5.20;2.20;;;;;;;18.37;41.33;101502.53;5031680;28;20108;-69
2024/02/29 00:32:43;;;;;;;4.97;2.20;;;;;;;18.33;41.50;101495.78;5029924;28;20039;-69
2024/02/29 00:35:08;;;;;;;4.72;2.17;;;;;;;18.29;41.54;101489.91;5028044;28;20398;-69
2024/02/29 00:37:34;;;;;;;4.85;2.13;;;;;;;18.22;41.31;101477.25;5031011;28;20147;-69
2024/02/29 00:39:59;;;;;;;4.82;2.20;;;;;;;18.30;41.49;101490.72;5037946;28;20470;-71
2024/02/29 00:42:24;;;;;;;4.28;2.45;;;;;;;18.24;41.32;101480.63;5034825;28;20091;-71
2024/02/29 00:44:49;;;;;;;4.70;2.30;;;;;;;18.30;41.33;101483.66;5028853;28;20080;-69
2024/02/29 00:47:15;;;;;;;8.48;3.47;;;;;;;18.17;41.45;101468.84;5025621;28;20687;-71
2024/02/29 00:49:41;;;;;;;4.78;2.20;;;;;;;18.26;41.34;101474.28;5027801;28;20041;-69
2024/02/29 00:52:06;;;;;;;4.45;2.20;;;;;;;18.22;41.33;101462.25;5031779;28;20471;-71
2024/02/29 00:54:32;;;;;;;4.35;2.55;;;;;;;18.25;41.66;101471.75;5029548;28;20083;-69
2024/02/29 00:56:57;;;;;;;5.13;2.22;;;;;;;18.24;41.25;101467.44;5027724;28;20470;-68
2024/02/29 00:59:22;;;;;;;4.13;2.30;;;;;;;18.22;41.07;101467.53;5030255;28;20533;-69
2024/02/29 01:01:48;;;;;;;4.65;2.10;;;;;;;18.15;41.21;101454.88;5020005;28;20033;-69
2024/02/29 01:04:13;;;;;;;5.25;2.60;;;;;;;18.22;41.04;101469.34;5028242;28;20033;-69
2024/02/29 01:06:38;;;;;;;5.40;2.55;;;;;;;18.23;41.26;101463.09;5020231;28;20399;-69
2024/02/29 01:09:04;;;;;;;4.10;2.22;;;;;;;18.16;41.19;101459.22;5018096;28;20069;-69
2024/02/29 01:11:31;;;;;;;5.25;2.83;;;;;;;18.18;41.05;101457.31;5017629;28;20053;-71
2024/02/29 01:13:57;;;;;;;4.22;2.20;;;;;;;18.13;41.10;101450.59;5019688;28;20030;-69
2024/02/29 01:16:22;;;;;;;5.60;2.50;;;;;;;18.12;41.12;101448.06;5019701;28;20029;-69
2024/02/29 01:18:47;;;;;;;5.05;2.50;;;;;;;18.08;41.00;101436.03;5026577;28;20032;-69
2024/02/29 01:21:12;;;;;;;5.55;2.53;;;;;;;18.04;40.95;101427.50;5033713;28;20391;-69
2024/02/29 01:23:38;;;;;;;5.65;2.53;;;;;;;18.08;41.17;101434.22;5026025;28;20056;-69
2024/02/29 01:26:04;;;;;;;4.50;2.38;;;;;;;18.17;41.07;101450.38;5023106;28;20032;-70
2024/02/29 01:28:29;;;;;;;4.55;2.40;;;;;;;18.09;41.04;101433.28;5024347;28;20074;-69
2024/02/29 01:30:55;;;;;;;4.13;2.30;;;;;;;18.00;41.16;101418.09;5031509;28;20141;-70
2024/02/29 01:33:20;;;;;;;4.20;2.47;;;;;;;18.11;40.81;101435.81;5020379;28;20033;-70
2024/02/29 01:35:45;;;;;;;4.93;2.42;;;;;;;18.11;40.92;101433.16;5029549;28;20097;-69
2024/02/29 01:38:11;;;;;;;4.60;2.65;;;;;;;18.02;40.82;101413.56;5036609;28;20717;-69
2024/02/29 01:40:36;;;;;;;4.85;2.42;;;;;;;18.00;40.89;101404.91;5037731;28;20394;-69
2024/02/29 01:43:02;;;;;;;4.82;2.63;;;;;;;18.05;40.77;101418.63;5020362;28;20454;-69
2024/02/29 01:45:28;;;;;;;5.35;2.38;;;;;;;18.07;40.92;101419.38;5023263;28;20033;-69
2024/02/29 01:47:53;;;;;;;4.65;2.50;;;;;;;18.04;40.84;101406.41;5036381;28;20216;-69
2024/02/29 01:50:19;;;;;;;5.72;2.45;;;;;;;18.05;41.16;101404.59;5038536;28;20033;-69
2024/02/29 01:52:45;;;;;;;4.95;2.75;;;;;;;17.96;40.83;101392.94;5033227;28;20036;-70
2024/02/29 01:55:11;;;;;;;3.95;2.30;;;;;;;17.98;40.84;101396.28;5031400;28;20087;-69
2024/02/29 01:57:38;;;;;;;4.63;2.38;;;;;;;17.98;40.91;101387.53;5019529;28;20117;-69
2024/02/29 02:00:04;;;;;;;5.10;2.63;;;;;;;18.06;40.73;101398.38;5022749;28;20047;-69
2024/02/29 02:02:30;;;;;;;5.80;2.78;;;;;;;18.04;41.03;101395.84;5019834;28;20037;-70
2024/02/29 02:04:55;;;;;;;5.47;2.53;;;;;;;17.94;40.65;101377.22;5027667;28;20036;-69
2024/02/29 02:07:20;;;;;;;4.70;2.50;;;;;;;17.99;40.70;101383.94;5030138;28;20028;-69
2024/02/29 02:09:46;;;;;;;4.68;2.58;;;;;;;18.02;40.99;101389.00;5025890;28;20041;-70
2024/02/29 02:12:11;;;;;;;4.85;2.78;;;;;;;17.93;40.93;101378.16;5028665;28;20031;-69
2024/02/29 02:14:38;;;;;;;5.45;2.78;;;;;;;18.01;41.15;101382.00;5018297;28;20040;-69
2024/02/29 02:17:05;;;;;;;5.03;2.40;;;;;;;17.89;40.79;101350.31;5029336;28;20586;-68
2024/02/29 02:19:30;;;;;;;5.05;2.63;;;;;;;17.98;41.04;101366.44;5037012;28;20037;-69
2024/02/29 02:21:57;;;;;;;4.95;2.67;;;;;;;17.95;41.29;101355.13;5029536;28;20028;-69
2024/02/29 02:24:24;;;;;;;5.13;2.50;;;;;;;17.97;41.04;101355.03;5028917;28;20120;-69
2024/02/29 02:26:49;;;;;;;4.80;2.88;;;;;;;17.98;40.76;101358.53;5024138;28;20030;-69
2024/02/29 02:29:14;;;;;;;4.70;2.80;;;;;;;17.80;40.62;101319.31;5027053;28;20033;-70
2024/02/29 02:31:40;;;;;;;4.65;2.55;;;;;;;17.86;40.78;101332.03;5030059;28;20031;-70
2024/02/29 02:34:05;;;;;;;5.30;2.97;;;;;;;17.86;40.67;101328.56;5033195;28;20028;-69
2024/02/29 02:36:30;;;;;;;5.07;2.83;;;;;;;17.98;40.77;101348.81;5028714;28;20963;-69
2024/02/29 02:38:55;;;;;;;4.47;2.90;;;;;;;17.94;40.83;101328.88;5023494;28;20039;-69
2024/02/29 02:41:22;;;;;;;5.30;2.53;;;;;;;17.90;40.85;101323.00;5028436;28;20718;-69
2024/02/29 02:43:49;;;;;;;4.82;2.67;;;;;;;17.95;40.90;101339.31;5033959;28;20029;-69
2024/02/29 02:46:15;;;;;;;5.15;3.00;;;;;;;17.90;40.84;101322.16;5029981;28;20041;-69
2024/02/29 02:48:40;;;;;;;5.50;2.80;;;;;;;17.90;40.60;101314.25;5026650;28;20026;-69
2024/02/29 02:51:06;;;;;;;5.35;2.67;;;;;;;17.79;40.99;101295.72;5025882;28;20483;-70
2024/02/29 02:53:31;;;;;;;5.13;2.97;;;;;;;17.85;40.92;101293.47;5024212;28;20026;-70
2024/02/29 02:55:56;;;;;;;5.60;3.10;;;;;;;17.93;40.72;101314.03;5021795;28;20029;-70
2024/02/29 02:58:21;;;;;;;5.68;3.05;;;;;;;17.79;40.89;101274.63;5024430;28;20029;-69
2024/02/29 03:00:47;;;;;;;5.68;3.28;;;;;;;17.73;40.60;101267.97;5028404;28;20501;-69
2024/02/29 03:03:12;;;;;;;5.22;2.78;;;;;;;17.61;40.74;101247.78;5030049;28;20037;-69
2024/02/29 03:05:37;;;;;;;5.00;2.90;;;;;;;17.78;40.82;101273.75;5034732;28;20624;-70
2024/02/29 03:08:03;;;;;;;4.80;2.83;;;;;;;17.89;40.81;101287.03;5037391;28;20081;-69
2024/02/29 03:10:29;;;;;;;5.07;2.70;;;;;;;17.89;40.76;101278.28;5028447;28;20087;-69
2024/02/29 03:12:54;;;;;;;5.82;2.90;;;;;;;17.85;40.84;101269.72;5034165;28;20029;-69
2024/02/29 03:15:20;;;;;;;5.05;2.72;;;;;;;17.88;40.86;101268.69;5037387;28;20577;-69
2024/02/29 03:17:45;;;;;;;5.40;2.72;;;;;;;17.77;40.71;101249.19;5033129;28;20037;-70
2024/02/29 03:20:13;;;;;;;4.90;2.63;;;;;;;17.77;41.06;101249.19;5023221;28;20545;-70
2024/02/29 03:22:39;;;;;;;4.60;2.47;;;;;;;17.86;41.08;101258.22;5028118;28;20478;-70
2024/02/29 03:25:05;;;;;;;5.43;2.92;;;;;;;17.76;40.98;101250.13;5032068;28;20118;-69
2024/02/29 03:27:30;;;;;;;6.47;2.97;;;;;;;17.74;40.83;101241.50;5039658;28;20458;-70
2024/02/29 03:29:55;;;;;;;5.43;2.75;;;;;;;17.75;40.58;101235.28;5028737;28;20029;-70
2024/02/29 03:32:21;;;;;;;4.72;2.65;;;;;;;17.75;40.88;101232.66;5027546;28;20656;-70
2024/02/29 03:34:46;;;;;;;5.32;2.92;;;;;;;17.73;40.88;101221.38;5024548;28;20033;-69
2024/02/29 03:37:13;;;;;;;5.68;2.72;;;;;;;17.75;40.74;101224.75;5023446;28;20053;-70
2024/02/29 03:39:38;;;;;;;4.65;2.60;;;;;;;17.75;40.54;101230.03;5031053;28;20029;-70
2024/02/29 03:42:04;;;;;;;5.80;3.15;;;;;;;17.85;40.95;101234.59;5040680;28;20482;-70
2024/02/29 03:44:29;;;;;;;4.18;2.35;;;;;;;17.81;40.94;101226.06;5040455;28;20060;-71
2024/02/29 03:46:54;;;;;;;4.75;2.53;;;;;;;17.82;40.93;101226.94;5040247;28;20396;-71
2024/02/29 03:49:20;;;;;;;4.30;2.65;;;;;;;17.63;40.77;101190.56;5041263;28;20032;-71
2024/02/29 03:51:45;;;;;;;5.00;2.60;;;;;;;17.71;40.80;101198.72;5039963;28;20543;-71
2024/02/29 03:54:10;;;;;;;5.57;2.47;;;;;;;17.81;40.81;101218.16;5037956;28;20083;-71
2024/02/29 03:56:35;;;;;;;4.38;2.42;;;;;;;17.77;41.17;101216.72;5026915;28;20399;-71
2024/02/29 03:59:01;;;;;;;4.53;2.20;;;;;;;17.67;40.94;101194.63;5038499;28;20025;-71
2024/02/29 04:01:26;;;;;;;5.10;2.60;;;;;;;17.74;40.96;101204.59;5025498;28;20760;-71
2024/02/29 04:03:51;;;;;;;4.22;2.30;;;;;;;17.77;41.12;101209.66;5031732;28;20041;-71
2024/02/29 04:06:16;;;;;;;5.22;2.60;;;;;;;17.67;40.91;101192.00;5022191;28;20861;-71
2024/02/29 04:08:42;;;;;;;4.20;2.25;;;;;;;17.74;41.09;101204.59;5023796;28;20030;-70
2024/02/29 04:11:07;;;;;;;4.95;2.42;;;;;;;17.79;41.08;101213.97;5028108;28;20280;-71
2024/02/29 04:13:33;;;;;;;4.00;2.38;;;;;;;17.66;41.08;101198.22;5025713;28;20047;-71
2024/02/29 04:15:58;;;;;;;5.07;2.60;;;;;;;17.73;40.91;101210.00;5028019;28;20086;-70
2024/02/29 04:18:23;;;;;;;5.82;3.30;;;;;;;17.76;41.09;101207.97;5030142;28;20128;-70
2024/02/29 04:20:49;;;;;;;3.90;2.10;;;;;;;17.57;41.14;101181.28;5030533;28;20029;-71
2024/02/29 04:23:14;;;;;;;5.47;2.30;;;;;;;17.75;41.03;101211.56;5035813;28;20037;-70
2024/02/29 04:25:39;;;;;;;4.55;2.20;;;;;;;17.72;41.00;101195.13;5037859;28;20462;-70
2024/02/29 04:28:05;;;;;;;4.30;2.20;;;;;;;17.76;41.16;101207.13;5025677;28;20534;-70
2024/02/29 04:30:31;;;;;;;3.70;1.90;;;;;;;17.68;40.94;101199.78;5026397;28;20495;-70
2024/02/29 04:32:57;;;;;;;4.43;2.13;;;;;;;17.73;40.83;101205.56;5033645;28;20097;-70
2024/02/29 04:35:22;;;;;;;4.50;2.13;;;;;;;17.69;41.07;101196.19;5029297;28;20115;-71
2024/02/29 04:37:47;;;;;;;4.47;2.10;;;;;;;17.65;40.92;101188.63;5020440;28;20029;-71
2024/02/29 04:40:13;;;;;;;4.80;2.30;;;;;;;17.71;41.01;101182.91;5021750;28;20464;-70
2024/02/29 04:42:39;;;;;;;6.30;2.20;;;;;;;17.73;41.12;101183.63;5039598;28;20040;-71
2024/02/29 04:45:05;;;;;;;4.10;2.03;;;;;;;17.62;41.32;101167.78;5039737;28;20044;-70
2024/02/29 04:47:31;;;;;;;4.53;2.28;;;;;;;17.70;41.01;101181.22;5039532;28;20417;-70
2024/02/29 04:49:56;;;;;;;4.40;2.28;;;;;;;17.66;41.09;101166.59;5039302;28;20025;-70
2024/02/29 04:52:22;;;;;;;5.18;1.92;;;;;;;17.72;41.35;101168.75;5039674;28;20525;-71
2024/02/29 04:54:48;;;;;;;3.72;2.03;;;;;;;17.65;41.42;101159.63;5033006;28;20602;-71
2024/02/29 04:57:13;;;;;;;4.10;2.03;;;;;;;17.59;41.34;101150.38;5020198;28;20083;-71
2024/02/29 04:59:38;;;;;;;4.63;2.20;;;;;;;17.69;41.22;101163.72;5020328;28;20045;-71
2024/02/29 05:02:03;;;;;;;4.05;2.15;;;;;;;17.67;41.40;101155.09;5020693;28;20112;-70
2024/02/29 05:04:29;;;;;;;4.07;2.17;;;;;;;17.61;41.13;101142.34;5028777;28;20037;-71
2024/02/29 05:06:54;;;;;;;4.30;2.20;;;;;;;17.57;41.10;101133.84;5019431;28;20033;-71
2024/02/29 05:09:20;;;;;;;5.05;2.35;;;;;;;17.48;41.25;101122.22;5030749;28;20585;-71
2024/02/29 05:11:46;;;;;;;4.80;2.28;;;;;;;17.60;41.23;101138.91;5035411;28;20115;-70
2024/02/29 05:14:12;;;;;;;4.95;2.33;;;;;;;17.58;41.38;101133.72;5030931;28;20030;-71
2024/02/29 05:16:37;;;;;;;3.90;2.10;;;;;;;17.56;41.20;101129.53;5037621;28;20055;-71
2024/02/29 05:19:02;;;;;;;3.83;1.90;;;;;;;17.58;41.21;101130.28;5024024;28;20066;-72
2024/02/29 05:21:28;;;;;;;4.35;1.90;;;;;;;17.62;41.38;101128.25;5038662;28;20075;-71
2024/02/29 05:23:53;;;;;;;4.20;2.30;;;;;;;17.54;41.36;101119.09;5023884;28;20033;-71
2024/02/29 05:26:19;;;;;;;4.03;1.83;;;;;;;17.55;41.29;101131.31;5034855;28;20410;-71
2024/02/29 05:28:44;;;;;;;3.80;1.90;;;;;;;17.64;41.25;101136.88;5031092;28;20052;-71
2024/02/29 05:31:10;;;;;;;5.53;2.05;;;;;;;17.61;40.98;101135.31;5027859;28;20094;-71
2024/02/29 05:33:36;;;;;;;5.13;1.90;;;;;;;17.53;41.17;101116.56;5032273;28;20025;-71
2024/02/29 05:36:02;;;;;;;5.20;2.13;;;;;;;17.61;41.29;101132.69;5024410;28;20459;-71
2024/02/29 05:38:27;;;;;;;4.15;2.00;;;;;;;17.61;41.16;101121.28;5030843;28;20047;-71
2024/02/29 05:40:52;;;;;;;3.58;1.83;;;;;;;17.58;41.48;101120.56;5034663;28;20483;-71
2024/02/29 05:43:18;;;;;;;3.75;1.70;;;;;;;17.63;41.59;101130.75;5033794;28;20091;-71
2024/02/29 05:45:43;;;;;;;5.57;2.17;;;;;;;17.52;41.48;101107.00;5023603;28;20029;-72
2024/02/29 05:48:09;;;;;;;4.88;2.10;;;;;;;17.61;41.51;101121.28;5024529;28;20060;-71
2024/02/29 05:50:34;;;;;;;4.00;1.85;;;;;;;17.55;41.25;101112.06;5025072;28;20033;-71
2024/02/29 05:52:59;;;;;;;4.05;2.00;;;;;;;17.50;41.33;101108.91;5028350;28;20069;-71
2024/02/29 05:55:25;;;;;;;4.13;1.77;;;;;;;17.58;41.25;101110.03;5021592;28;20087;-70
2024/02/29 05:57:50;;;;;;;4.53;1.70;;;;;;;17.56;41.44;101108.44;5021254;28;20467;-71
2024/02/29 06:00:19;;;;;;;3.80;1.65;;;;;;;17.64;41.39;101118.41;5021097;28;20463;-71
2024/02/29 06:02:45;;;;;;;3.30;1.45;;;;;;;17.54;41.67;101092.75;5031886;28;20045;-71
2024/02/29 06:05:10;;;;;;;3.55;1.52;;;;;;;17.55;41.67;101091.81;5024919;28;20029;-71
2024/02/29 06:07:36;;;;;;;3.20;1.55;;;;;;;17.55;41.88;101093.59;5028501;28;20118;-71
2024/02/29 06:10:02;;;;;;;3.53;1.35;;;;;;;17.61;42.03;101095.78;5031249;28;20033;-70
2024/02/29 06:12:30;;;;;;;3.13;1.55;;;;;;;17.75;41.75;101107.91;5026185;28;20723;-71
2024/02/29 06:14:55;;;;;;;3.45;1.35;;;;;;;17.69;42.01;101088.13;5020702;28;20396;-71
2024/02/29 06:17:20;;;;;;;2.45;1.10;;;;;;;17.66;41.78;101077.81;5025719;28;20038;-71
2024/02/29 06:19:46;;;;;;;2.55;1.20;;;;;;;17.81;42.04;101091.63;5024128;28;20033;-72
2024/02/29 06:22:11;;;;;;;3.40;1.30;;;;;;;17.77;41.90;101080.47;5025585;28;20036;-71
2024/02/29 06:24:36;;;;;;;3.33;1.45;;;;;;;17.83;41.53;101080.97;5027659;28;20048;-71
2024/02/29 06:27:02;;;;;;;3.63;1.65;;;;;;;17.83;41.94;101078.31;5027477;28;20167;-71
2024/02/29 06:29:27;;;;;;;2.92;1.33;;;;;;;17.58;41.89;101032.75;5030875;28;20033;-71
2024/02/29 06:31:53;;;;;;;2.58;1.33;;;;;;;17.95;41.77;101091.44;5027523;28;20112;-71
2024/02/29 06:34:18;;;;;;;3.40;1.20;;;;;;;17.92;41.77;101078.50;5032239;28;20032;-71
2024/02/29 06:36:47;;;;;;;2.70;1.20;;;;;;;17.98;41.74;101081.63;5026709;28;20033;-72
2024/02/29 06:39:13;;;;;;;2.92;1.38;;;;;;;18.02;41.75;101080.44;5041337;28;20060;-70
2024/02/29 06:41:42;;;;;;;3.03;1.20;;;;;;;17.85;41.76;101050.03;5030432;28;20111;-71
2024/02/29 06:44:08;;;;;;;2.90;1.20;;;;;;;17.96;41.95;101073.84;5027718;28;20032;-70
2024/02/29 06:46:33;;;;;;;2.72;1.20;;;;;;;17.93;41.84;101064.34;5024993;28;20040;-70
2024/02/29 06:49:02;;;;;;;2.72;1.17;;;;;;;17.98;41.71;101065.81;5030651;28;20593;-70
2024/02/29 06:51:28;;;;;;;3.88;1.30;;;;;;;18.11;42.06;101093.75;5032985;28;20040;-71
2024/02/29 06:53:54;;;;;;;3.08;1.50;;;;;;;18.09;41.68;101079.84;5038331;28;20036;-70
2024/02/29 06:56:20;;;;;;;2.72;1.20;;;;;;;18.05;41.84;101064.38;5028489;28;20237;-71
2024/02/29 06:58:45;;;;;;;4.18;1.33;;;;;;;18.13;42.14;101088.34;5027047;28;20127;-71
2024/02/29 07:01:13;;;;;;;3.00;1.35;;;;;;;18.05;41.87;101057.28;5041821;28;20033;-70
2024/02/29 07:03:38;;;;;;;2.92;1.33;;;;;;;18.02;41.97;101054.88;5033698;28;20036;-70
2024/02/29 07:06:04;;;;;;;3.08;1.23;;;;;;;18.13;41.81;101070.75;5033935;28;20435;-70
2024/02/29 07:08:34;;;;;;;3.33;1.35;;;;;;;18.17;41.91;101081.88;5032940;28;20032;-70
2024/02/29 07:10:59;;;;;;;3.10;1.20;;;;;;;18.14;41.79;101076.84;5030071;28;20470;-71
2024/02/29 07:13:24;;;;;;;3.08;1.33;;;;;;;18.15;41.58;101067.97;5032671;28;20037;-71
2024/02/29 07:15:50;;;;;;;3.08;1.20;;;;;;;18.16;41.89;101069.66;5033715;28;20521;-70
2024/02/29 07:18:15;;;;;;;3.20;1.50;;;;;;;18.05;42.10;101043.28;5040614;28;20049;-70
2024/02/29 07:20:40;;;;;;;2.35;1.20;;;;;;;18.07;41.90;101046.63;5033337;28;20055;-70
2024/02/29 07:23:06;;;;;;;2.47;1.30;;;;;;;18.08;41.81;101049.13;5029186;28;20364;-70
2024/02/29 07:25:31;;;;;;;3.05;1.35;;;;;;;18.08;41.82;101045.66;5034966;28;20347;-71
2024/02/29 07:27:57;;;;;;;3.47;1.33;;;;;;;18.06;42.16;101044.97;5032050;28;20032;-71
2024/02/29 07:30:22;;;;;;;2.65;1.27;;;;;;;18.18;41.85;101069.53;5029222;28;20029;-70
2024/02/29 07:32:47;;;;;;;3.05;1.27;;;;;;;18.15;41.98;101054.78;5039590;28;20037;-71
2024/02/29 07:35:17;;;;;;;3.22;1.30;;;;;;;18.02;41.80;101035.59;5021807;28;20061;-70
2024/02/29 07:37:44;;;;;;;2.72;1.30;;;;;;;18.06;41.91;101044.97;5029420;28;20040;-70
2024/02/29 07:40:09;;;;;;;3.28;1.33;;;;;;;18.09;41.85;101045.56;5033884;28;20076;-71
2024/02/29 07:42:34;;;;;;;3.35;1.20;;;;;;;18.16;42.19;101058.25;5033273;28;20386;-71
2024/02/29 07:45:00;;;;;;;2.50;1.13;;;;;;;18.16;42.00;101053.00;5023446;28;20038;-70
2024/02/29 07:47:25;;;;;;;2.63;1.10;;;;;;;18.01;42.06;101026.00;5021549;28;20140;-70
2024/02/29 07:49:51;;;;;;;3.08;1.40;;;;;;;18.16;42.07;101045.91;5026325;28;20041;-70
2024/02/29 07:52:17;;;;;;;2.80;1.15;;;;;;;18.06;41.94;101031.78;5027454;28;20120;-70
2024/02/29 07:54:45;;;;;;;3.47;1.30;;;;;;;18.07;42.08;101025.53;5027815;28;20099;-71
2024/02/29 07:57:10;;;;;;;2.30;1.17;;;;;;;18.09;42.08;101029.72;5025145;28;20049;-71
2024/02/29 07:59:36;;;;;;;2.55;1.15;;;;;;;18.15;41.83;101036.34;5031239;28;20807;-71
2024/02/29 08:02:01;;;;;;;3.30;1.15;;;;;;;18.07;42.09;101029.00;5024434;28;20502;-70
2024/02/29 08:04:26;;;;;;;2.55;1.20;;;;;;;18.15;42.25;101038.13;5033060;28;20266;-68
2024/02/29 08:06:51;;;;;;;2.60;1.20;;;;;;;18.06;42.05;101023.84;5039995;28;20104;-68
2024/02/29 08:09:17;;;;;;;3.33;1.45;;;;;;;18.05;42.22;101022.16;5025993;28;20336;-72
2024/02/29 08:11:42;;;;;;;3.00;1.50;;;;;;;18.13;42.27;101035.59;5030367;28;20034;-71
2024/02/29 08:14:07;;;;;;;3.72;1.38;;;;;;;18.17;42.09;101037.03;5021233;28;20080;-69
2024/02/29 08:16:33;;;;;;;3.13;1.10;;;;;;;18.15;42.25;101017.00;5021236;28;20034;-69
2024/02/29 08:18:58;;;;;;;2.75;1.20;;;;;;;18.08;42.11;101006.09;5035402;28;20033;-69
2024/02/29 08:21:23;;;;;;;3.45;1.42;;;;;;;18.16;42.34;101016.06;5026931;28;20078;-69
2024/02/29 08:23:49;;;;;;;2.92;1.42;;;;;;;18.06;42.36;100997.50;5035333;28;20037;-69
2024/02/29 08:26:14;;;;;;;2.40;1.30;;;;;;;18.19;42.53;101013.19;5023326;28;20394;-70
2024/02/29 08:28:42;;;;;;;3.00;1.45;;;;;;;18.11;42.78;101001.44;5024580;28;20036;-69
2024/02/29 08:31:07;;;;;;;4.28;1.48;;;;;;;18.20;42.84;101006.94;5034499;28;20049;-69
2024/02/29 08:33:32;;;;;;;2.53;1.25;;;;;;;18.10;42.89;100988.34;5038254;28;20116;-69
2024/02/29 08:35:58;;;;;;;2.65;1.20;;;;;;;18.10;43.17;100986.56;5027520;28;20044;-69
2024/02/29 08:38:23;;;;;;;3.40;1.50;;;;;;;18.21;43.59;101005.97;5026045;28;20040;-69
2024/02/29 08:40:49;;;;;;;3.17;1.58;;;;;;;18.23;43.40;101009.31;5033290;28;20045;-70
2024/02/29 08:43:14;;;;;;;3.10;1.25;;;;;;;18.22;43.52;101003.22;5027143;28;20115;-70
2024/02/29 08:45:40;;;;;;;2.72;1.33;;;;;;;18.25;43.75;101004.78;5024171;28;20092;-70
2024/02/29 08:48:05;;;;;;;4.43;1.63;;;;;;;18.22;43.95;100992.66;5028067;28;20045;-69
2024/02/29 08:50:31;;;;;;;2.92;1.38;;;;;;;18.12;43.83;100974.09;5027451;28;20049;-70
2024/02/29 08:52:56;;;;;;;3.80;1.40;;;;;;;18.15;43.81;100988.00;5023209;28;20025;-70
2024/02/29 08:55:21;;;;;;;3.45;1.40;;;;;;;18.27;44.01;100998.41;5022672;28;20037;-70
2024/02/29 08:57:47;;;;;;;2.92;1.30;;;;;;;18.21;43.98;100993.63;5032755;28;20119;-69
2024/02/29 09:00:13;;;;;;;4.93;1.65;;;;;;;18.25;44.37;100988.97;5028877;28;20473;-70
2024/02/29 09:02:38;;;;;;;3.90;1.50;;;;;;;18.26;44.27;100994.13;5027815;28;20468;-69
2024/02/29 09:05:04;;;;;;;2.70;1.27;;;;;;;18.26;44.39;100983.56;5036539;28;20082;-70
2024/02/29 09:07:29;;;;;;;3.03;1.40;;;;;;;18.29;44.21;100987.75;5027107;28;20030;-70
2024/02/29 09:09:55;;;;;;;3.45;1.40;;;;;;;18.23;44.04;100983.81;5027363;28;20497;-70
2024/02/29 09:12:20;;;;;;;3.03;1.35;;;;;;;18.22;44.04;100971.56;5032651;28;20075;-70
2024/02/29 09:14:48;;;;;;;3.00;1.55;;;;;;;18.29;44.32;100985.09;5019962;28;20418;-69
2024/02/29 09:17:14;;;;;;;2.90;1.30;;;;;;;18.31;43.91;100985.84;5025884;28;20037;-69
2024/02/29 09:19:40;;;;;;;3.63;1.25;;;;;;;18.29;44.17;100977.19;5025128;28;20046;-70
2024/02/29 09:22:05;;;;;;;2.50;1.15;;;;;;;18.17;44.14;100957.09;5022528;28;20794;-69
2024/02/29 09:24:31;;;;;;;3.45;1.40;;;;;;;18.22;44.03;100957.53;5027148;28;20127;-69
2024/02/29 09:26:56;;;;;;;2.33;1.15;;;;;;;18.28;43.98;100970.25;5033006;28;20037;-71
2024/02/29 09:29:21;;;;;;;2.63;1.10;;;;;;;18.26;44.21;100962.47;5027876;28;20035;-70
2024/02/29 09:31:47;;;;;;;3.10;1.33;;;;;;;18.27;44.15;100960.66;5032160;28;20398;-70
2024/02/29 09:34:12;;;;;;;2.88;1.45;;;;;;;18.20;44.16;100952.41;5027405;28;20028;-70
2024/02/29 09:36:37;;;;;;;4.00;1.40;;;;;;;18.18;44.19;100938.47;5024792;28;20068;-70
2024/02/29 09:39:06;;;;;;;3.00;1.38;;;;;;;18.22;44.09;100939.91;5030684;28;20040;-70
2024/02/29 09:41:32;;;;;;;3.65;1.50;;;;;;;18.28;44.01;100947.34;5031544;28;20037;-67
2024/02/29 09:43:58;;;;;;;2.95;1.40;;;;;;;18.14;43.44;100934.41;5027765;28;20038;-67
2024/02/29 09:46:24;;;;;;;2.65;1.30;;;;;;;18.28;43.86;100949.16;5027189;28;20489;-67
2024/02/29 09:48:50;;;;;;;3.25;1.58;;;;;;;18.19;43.63;100931.41;5020489;28;20026;-67
2024/02/29 09:51:20;;;;;;;7.75;1.60;;;;;;;18.29;43.77;100943.75;5024722;28;20468;-70
2024/02/29 09:53:52;;;;;;;5.85;1.50;;;;;;;18.18;43.78;100922.63;5020757;28;20037;-70
2024/02/29 09:56:27;;;;;;;3.50;1.30;;;;;;;18.24;44.01;100924.78;5031130;28;20114;-70
2024/02/29 09:58:54;;;;;;;3.15;1.50;;;;;;;18.12;43.72;100908.16;5032346;28;20045;-69
2024/02/29 10:01:19;;;;;;;2.90;1.40;;;;;;;18.23;44.14;100919.63;5038316;28;20029;-70
2024/02/29 10:03:46;;;;;;;3.15;1.50;;;;;;;18.23;43.80;100917.00;5024643;28;20048;-70
2024/02/29 10:06:12;;;;;;;3.80;1.42;;;;;;;18.17;44.06;100905.16;5036125;28;20095;-72
2024/02/29 10:08:38;;;;;;;3.53;1.50;;;;;;;18.37;43.91;100937.81;5034304;28;20120;-71
2024/02/29 10:11:04;;;;;;;4.45;1.70;;;;;;;18.20;43.87;100904.91;5035484;28;20029;-70
2024/02/29 10:13:41;;;;;;;4.38;1.73;;;;;;;18.30;43.51;100915.56;5031214;28;20120;-71
2024/02/29 10:16:08;;;;;;;3.25;1.50;;;;;;;18.42;43.64;100934.81;5036512;28;20149;-72
2024/02/29 10:18:36;;;;;;;3.10;1.40;;;;;;;18.31;43.60;100911.97;5023631;28;20033;-71
2024/02/29 10:21:08;;;;;;;3.03;1.40;;;;;;;18.32;43.91;100910.97;5036922;28;20490;-67
2024/02/29 10:23:33;;;;;;;4.28;1.45;;;;;;;18.40;43.79;100920.91;5035399;28;20509;-70
2024/02/29 10:25:58;;;;;;;4.43;1.60;;;;;;;18.41;43.91;100925.25;5037155;28;20024;-71
2024/02/29 10:28:25;;;;;;;4.38;1.58;;;;;;;18.25;43.99;100892.19;5032560;28;20037;-69
2024/02/29 10:30:57;;;;;;;5.68;1.40;;;;;;;18.27;43.80;100892.06;5032429;28;20581;-72
2024/02/29 10:33:23;;;;;;;3.97;1.58;;;;;;;18.44;43.80;100922.34;5035260;28;20029;-68
2024/02/29 10:35:48;;;;;;;4.22;1.58;;;;;;;18.42;43.96;100914.56;5037460;28;20036;-71
2024/02/29 10:38:14;;;;;;;4.57;1.73;;;;;;;18.36;43.80;100904.50;5027811;28;20036;-71
2024/02/29 10:40:40;;;;;;;3.38;1.65;;;;;;;18.35;43.93;100891.44;5035732;28;20056;-68
2024/02/29 10:43:11;;;;;;;5.80;1.70;;;;;;;18.43;43.83;100913.59;5021996;28;20542;-67
2024/02/29 10:45:46;;;;;;;4.53;2.03;;;;;;;18.44;43.83;100912.63;5024797;28;20340;-66
2024/02/29 10:48:28;;;;;;;3.22;1.48;;;;;;;18.41;43.84;100901.50;5028397;28;20141;-67
2024/02/29 10:51:08;;;;;;;3.38;1.60;;;;;;;18.45;43.94;100905.53;5032129;28;20116;-67
2024/02/29 10:53:49;;;;;;;3.17;1.30;;;;;;;18.46;43.88;100915.16;5028242;28;20112;-69
2024/02/29 10:56:27;;;;;;;3.80;1.40;;;;;;;18.45;43.81;100903.75;5033466;28;20041;-68
2024/02/29 10:59:10;;;;;;;3.40;1.50;;;;;;;18.24;43.94;100864.13;5034690;28;20033;-68
2024/02/29 11:01:37;;;;;;;3.22;1.60;;;;;;;18.31;44.10;100883.78;5030518;28;20043;-67
2024/02/29 11:04:03;;;;;;;2.85;1.40;;;;;;;18.41;44.30;100894.41;5030344;28;20475;-68
2024/02/29 11:06:32;;;;;;;3.10;1.55;;;;;;;18.36;44.16;100882.53;5036036;28;20036;-68
2024/02/29 11:08:58;;;;;;;3.60;1.63;;;;;;;18.30;44.44;100873.34;5029526;28;20193;-68
2024/02/29 11:11:28;;;;;;;4.15;1.55;;;;;;;18.42;44.11;100893.47;5032445;28;20713;-68
2024/02/29 11:14:07;;;;;;;3.88;1.52;;;;;;;18.32;44.12;100876.69;5028620;28;20478;-69
2024/02/29 11:16:36;;;;;;;2.78;1.30;;;;;;;18.43;44.24;100889.00;5028513;28;20073;-67
2024/02/29 11:19:02;;;;;;;3.78;1.77;;;;;;;18.34;44.45;100873.91;5028283;28;20587;-70